Airfield :
LOGIN :

Register | Disclaimer

   EN    FR    IT 

 










Legend :    VFR   Marginal VFR   IFR   Intensive IFR   Very Intensive IFR
Visi :
Ceiling :
>= 8 km
>= 3000ft
5 to 8 km
1000 to 3000 ft
1500m to 5 km
500 to 1000 ft
800 to 1500m
200 to 500 ft
< 800m
< 200 ft
Symbols :   Thunderstorms  Fog  Heavy snow  Heavy precipitations  Wind > 20 kt
SIGMETs :     Misc.  Thunderstorms  Icing  Turbulence  Mountain Waves  Volcanic Ashes







- Airport Elevation : 83 ft
- IATA code : LHR
- Download approach charts


EGLL - London Heathrow

CURRENT METAR :
  • 200250Z AUTO 20010KT 9999 FEW017 BKN029 16/16 Q1007 TEMPO SHRA BKN014

EXPIRED METARs :
  • 200220Z AUTO 22007KT 9999 -RA SCT017 17/16 Q1007 TEMPO SHRA BKN014
  • 200150Z AUTO 18004KT 130V200 9999 -RA FEW033/// SCT046/// //////CB 16/16 Q1006 TEMPO 4000 RA
  • 200120Z AUTO 18008KT 7000 -RA BKN031/// BKN044/// //////CB 17/16 Q1007 TEMPO 4000 RA
  • 200050Z AUTO 20009KT 9999 -RA FEW041/// //////CB 17/17 Q1008 TEMPO RA BKN009
  • 200020Z AUTO 19008KT 9000 -RA FEW010/// SCT025/// BKN039/// //////TCU 17/17 Q1008 TEMPO RA BKN009

TAF TAF EGLL
Valid from the 20 at 00:00 until the 21 at 06:00 UTC


192257Z 2000/2106 20008KT 9999 SCT025
TEMPO 2000/2007 7000 SHRA RA BKN010
PROB30
TEMPO 2000/2005 3000 +RA TSRA BKN006 BKN025CB
PROB30
TEMPO 2010/2016 3000 +SHRA TSGS
BECMG 2013/2016 26010KT
No reported NOTAMs for that airfield.
1 SIGMET reported for the London FIR (EGTT) :
 
Embedded thunderstorms
EGTT SIGMET 01 VALID 200130/200530 EGRR
EGTT LONDON FIR EMBD TS OBS WI N5122 W00150 - N5247 E00149 - N5113 E00138 - N5010 E00011 - N5000 W00015 - N5000 W00137 - N5122 W00150 TOP FL350 MOV NE 25KT NC=



MET'MAP, your aeronautical weather chart ! - Copyright ORBIFLY December 2007 - Disclaimer

ORBIFLY MET'MAP TEAM :

Programming & Development : Alexandra Zaïnal
Concept & Development : Baudouin d'Aumeries
Co-Development & Prog : Marc-Olivier Méhu
Technical & hardware support : Manuel Goepfert

Contact : metmap@orbifly.com




SOURCES & CREDITS :

   NOAA